Time;durP1;ratioP1;P1;durP2;ratioP2;P2;SDS_P1;SDS_P2;PMS_P1;PMS_P2;Temp;Humidity;BMP_temperature;BMP_pressure;BME280_temperature;BME280_humidity;BME280_pressure;Samples;Min_cycle;Max_cycle;Signal;HPM_P1;HPM_P2
2022/11/20 00:00:18;;;;;;;45.13;19.07;;;-4.30;99.90;;;;;;4788885;30;20232;-85
2022/11/20 00:02:44;;;;;;;46.90;19.90;;;-4.30;99.90;;;;;;4759468;30;20565;-85
2022/11/20 00:05:11;;;;;;;47.30;20.20;;;-4.30;99.90;;;;;;4773910;30;20208;-84
2022/11/20 00:07:38;;;;;;;45.37;19.73;;;-4.30;99.90;;;;;;4773597;30;20231;-86
2022/11/20 00:10:05;;;;;;;45.03;19.10;;;-4.30;99.90;;;;;;4773843;30;20208;-85
2022/11/20 00:12:32;;;;;;;45.53;19.77;;;-4.30;99.90;;;;;;4774323;30;20220;-88
2022/11/20 00:14:59;;;;;;;47.80;19.87;;;-4.30;99.90;;;;;;4774087;30;20204;-85
2022/11/20 00:17:26;;;;;;;42.17;18.70;;;-4.40;99.90;;;;;;4789844;29;20215;-86
2022/11/20 00:19:53;;;;;;;43.37;19.73;;;-4.40;99.90;;;;;;4788809;30;20188;-88
2022/11/20 00:22:20;;;;;;;44.90;19.07;;;-4.40;99.90;;;;;;4767638;30;20213;-85
2022/11/20 00:24:46;;;;;;;40.80;19.03;;;-4.40;99.90;;;;;;4757482;30;20208;-82
2022/11/20 00:27:13;;;;;;;44.30;19.20;;;-4.30;99.90;;;;;;4772223;30;20228;-86
2022/11/20 00:29:40;;;;;;;41.63;18.70;;;-4.30;99.90;;;;;;4787189;30;20208;-85
2022/11/20 00:32:07;;;;;;;46.27;19.93;;;-4.30;99.90;;;;;;4755431;30;20213;-86
2022/11/20 00:34:33;;;;;;;46.83;19.53;;;-4.30;99.90;;;;;;4755606;30;20304;-87
2022/11/20 00:37:00;;;;;;;45.90;19.53;;;-4.40;99.90;;;;;;4771363;30;20205;-86
2022/11/20 00:39:27;;;;;;;44.77;19.60;;;-4.40;99.90;;;;;;4771563;30;20299;-82
2022/11/20 00:41:54;;;;;;;42.47;18.80;;;-4.30;99.90;;;;;;4755347;30;20205;-85
2022/11/20 00:44:21;;;;;;;43.23;18.50;;;-4.30;99.90;;;;;;4755426;30;20581;-88
2022/11/20 00:46:48;;;;;;;45.73;19.20;;;-4.20;99.90;;;;;;4766409;30;20236;-88
2022/11/20 00:49:14;;;;;;;42.40;19.30;;;-4.10;99.90;;;;;;4788301;30;20204;-88
2022/11/20 00:51:41;;;;;;;40.77;17.93;;;-4.10;99.90;;;;;;4788800;30;20573;-84
2022/11/20 00:54:10;;;;;;;48.13;20.70;;;-4.10;99.90;;;;;;4772940;30;20232;-88
2022/11/20 00:56:37;;;;;;;43.03;18.57;;;-4.10;99.90;;;;;;4788991;29;20200;-88
2022/11/20 00:59:04;;;;;;;44.27;18.67;;;-4.10;99.90;;;;;;4788365;30;20672;-88
2022/11/20 01:01:31;;;;;;;46.47;19.00;;;-4.10;99.90;;;;;;4787746;30;20261;-88
2022/11/20 01:04:00;;;;;;;42.17;19.33;;;-4.10;99.90;;;;;;4762312;30;20266;-87
2022/11/20 01:06:35;;;;;;;44.30;19.47;;;-4.00;99.90;;;;;;4754751;30;20233;-84
2022/11/20 01:09:11;;;;;;;44.10;19.33;;;-4.00;99.90;;;;;;4754836;30;20609;-85
2022/11/20 01:11:41;;;;;;;43.23;19.10;;;-4.10;99.90;;;;;;4770864;30;20200;-83
2022/11/20 01:14:13;;;;;;;40.97;18.13;;;-4.10;99.90;;;;;;4754695;30;20201;-86
2022/11/20 01:16:43;;;;;;;45.57;19.07;;;-4.10;99.90;;;;;;4754647;30;20668;-86
2022/11/20 01:19:12;;;;;;;47.03;19.10;;;-4.10;99.90;;;;;;4755909;30;20216;-88
2022/11/20 01:21:45;;;;;;;43.47;18.93;;;-4.10;99.90;;;;;;4760235;30;20211;-87
2022/11/20 01:24:14;;;;;;;46.40;19.27;;;-4.20;99.90;;;;;;4754484;30;20602;-83
2022/11/20 01:26:43;;;;;;;47.77;19.77;;;-4.10;99.90;;;;;;4754981;30;20240;-83
2022/11/20 01:29:20;;;;;;;42.00;19.40;;;-4.20;99.90;;;;;;4754898;30;20208;-81
2022/11/20 01:31:47;;;;;;;43.63;18.70;;;-4.20;99.90;;;;;;4754287;30;20201;-82
2022/11/20 01:34:17;;;;;;;42.67;18.90;;;-4.30;99.90;;;;;;4754861;30;20213;-83
2022/11/20 01:36:44;;;;;;;47.37;18.77;;;-4.20;99.90;;;;;;4754383;30;20216;-82
2022/11/20 01:39:17;;;;;;;41.00;18.87;;;-4.20;99.90;;;;;;4754813;30;20195;-82
2022/11/20 01:44:55;;;;;;;41.73;19.03;;;-4.20;99.90;;;;;;4770346;30;20205;-83
2022/11/20 01:47:28;;;;;;;45.67;20.27;;;-4.20;99.90;;;;;;4754125;30;20232;-82
2022/11/20 01:50:10;;;;;;;46.10;19.33;;;-4.20;99.90;;;;;;4754370;30;20220;-80
2022/11/20 01:52:51;;;;;;;42.73;19.27;;;-4.20;99.90;;;;;;4770294;30;20201;-88
2022/11/20 01:55:26;;;;;;;49.60;20.40;;;-4.20;99.90;;;;;;4770148;30;20239;-87
2022/11/20 01:57:53;;;;;;;47.43;18.90;;;-4.20;99.90;;;;;;4754158;30;20205;-86
2022/11/20 02:00:21;;;;;;;49.63;20.83;;;-4.20;99.90;;;;;;4754469;30;20220;-87
2022/11/20 02:02:51;;;;;;;52.53;20.53;;;-4.10;99.90;;;;;;4754126;30;20209;-87
2022/11/20 02:05:25;;;;;;;50.73;20.10;;;-4.10;99.90;;;;;;4754168;30;20201;-87
2022/11/20 02:07:54;;;;;;;47.10;20.17;;;-4.10;99.90;;;;;;4754030;30;20767;-84
2022/11/20 02:10:21;;;;;;;46.63;20.73;;;-4.00;99.90;;;;;;4754447;30;20254;-83
2022/11/20 02:15:33;;;;;;;48.57;21.27;;;-4.00;99.90;;;;;;4769601;30;20188;-82
2022/11/20 02:18:01;;;;;;;47.03;20.40;;;-3.90;99.90;;;;;;4759928;30;20648;-85
2022/11/20 02:20:28;;;;;;;45.33;20.53;;;-3.90;99.90;;;;;;4760457;30;20261;-86
2022/11/20 02:23:06;;;;;;;47.10;21.07;;;-3.90;99.90;;;;;;4760633;30;20204;-87
2022/11/20 02:25:35;;;;;;;48.33;21.13;;;-3.80;99.90;;;;;;4775931;30;20200;-84
2022/11/20 02:28:02;;;;;;;46.67;21.07;;;-3.90;99.90;;;;;;4776101;30;20633;-87
2022/11/20 02:30:29;;;;;;;48.43;20.97;;;-3.80;99.90;;;;;;4745599;30;20554;-84
2022/11/20 02:32:57;;;;;;;46.80;20.67;;;-3.80;99.90;;;;;;4775886;30;20207;-85
2022/11/20 02:35:26;;;;;;;46.60;20.37;;;-3.70;99.90;;;;;;4775873;30;20202;-88
2022/11/20 02:37:55;;;;;;;46.97;20.07;;;-3.70;99.90;;;;;;4759958;30;20201;-86
2022/11/20 02:40:22;;;;;;;45.57;20.20;;;-3.60;99.90;;;;;;4759702;30;20205;-86
2022/11/20 02:42:54;;;;;;;49.17;21.07;;;-3.60;99.90;;;;;;4760099;30;20204;-85
2022/11/20 02:45:22;;;;;;;45.13;20.03;;;-3.60;99.90;;;;;;4775670;30;20213;-84
2022/11/20 02:47:50;;;;;;;47.23;20.73;;;-3.70;99.90;;;;;;4759706;30;20236;-85
2022/11/20 02:50:17;;;;;;;48.90;20.67;;;-3.70;99.90;;;;;;4775804;30;20204;-83
2022/11/20 02:52:44;;;;;;;49.07;20.43;;;-3.70;99.90;;;;;;4759602;30;20197;-87
2022/11/20 02:55:11;;;;;;;51.07;21.10;;;-3.60;99.90;;;;;;4759417;30;20244;-84
2022/11/20 02:57:37;;;;;;;52.43;21.57;;;-3.50;99.90;;;;;;4759799;30;20212;-85
2022/11/20 03:00:06;;;;;;;48.63;20.90;;;-3.50;99.90;;;;;;4759348;30;20232;-84
2022/11/20 03:02:33;;;;;;;47.03;20.67;;;-3.50;99.90;;;;;;4759414;29;20220;-87
2022/11/20 03:05:00;;;;;;;48.43;21.47;;;-3.60;99.90;;;;;;4774458;30;20252;-84
2022/11/20 03:07:27;;;;;;;44.97;20.73;;;-3.70;99.90;;;;;;4766192;30;20717;-85
2022/11/20 03:09:54;;;;;;;47.57;20.73;;;-3.70;99.90;;;;;;4777333;30;20201;-86
2022/11/20 03:12:21;;;;;;;52.07;21.83;;;-3.60;99.90;;;;;;4777237;30;20655;-82
2022/11/20 03:14:48;;;;;;;48.00;21.17;;;-3.60;99.90;;;;;;4788264;29;20223;-81
2022/11/20 03:17:19;;;;;;;50.23;21.67;;;-3.60;99.90;;;;;;4774313;30;20216;-81
2022/11/20 03:19:46;;;;;;;44.80;20.43;;;-3.60;99.90;;;;;;4775581;30;20277;-82
2022/11/20 03:22:13;;;;;;;49.80;20.43;;;-3.70;99.90;;;;;;4759676;30;20202;-80
2022/11/20 03:24:39;;;;;;;48.40;21.23;;;-3.80;99.90;;;;;;4761177;30;20262;-87
2022/11/20 03:27:06;;;;;;;50.67;21.53;;;-3.90;99.90;;;;;;4764591;29;20253;-87
2022/11/20 03:29:35;;;;;;;48.03;21.00;;;-3.90;99.90;;;;;;4773749;30;20200;-86
2022/11/20 03:32:01;;;;;;;49.23;21.70;;;-3.80;99.90;;;;;;4774636;29;20291;-87
2022/11/20 03:34:28;;;;;;;55.03;21.37;;;-3.90;99.90;;;;;;4774348;30;20223;-87
2022/11/20 03:36:55;;;;;;;50.77;21.70;;;-3.90;99.90;;;;;;4790705;29;20213;-87
2022/11/20 03:39:22;;;;;;;47.83;21.03;;;-3.90;99.90;;;;;;4790417;30;20204;-85
2022/11/20 03:41:49;;;;;;;49.87;20.83;;;-3.90;99.90;;;;;;4774163;30;20641;-86
2022/11/20 03:44:16;;;;;;;51.30;21.03;;;-3.80;99.90;;;;;;4789329;29;20217;-82
2022/11/20 03:46:43;;;;;;;46.33;20.73;;;-3.80;99.90;;;;;;4791852;29;20200;-83
2022/11/20 03:49:10;;;;;;;48.27;21.03;;;-3.80;99.90;;;;;;4724842;30;20703;-83
2022/11/20 03:51:37;;;;;;;50.10;20.97;;;-3.80;99.90;;;;;;4753147;30;20210;-86
2022/11/20 03:54:07;;;;;;;48.17;21.33;;;-3.80;99.90;;;;;;4737344;30;20340;-83
2022/11/20 03:56:37;;;;;;;50.90;21.67;;;-3.90;99.90;;;;;;4737392;30;20569;-83
2022/11/20 03:59:05;;;;;;;51.20;21.40;;;-3.80;99.90;;;;;;4737385;30;20217;-84
2022/11/20 04:01:34;;;;;;;51.67;21.40;;;-3.90;99.90;;;;;;4752054;30;20209;-84
2022/11/20 04:04:01;;;;;;;48.90;21.43;;;-4.10;99.90;;;;;;4752030;30;20209;-83
2022/11/20 04:06:30;;;;;;;54.17;22.23;;;-4.10;99.90;;;;;;4743451;30;20208;-84
2022/11/20 04:08:58;;;;;;;57.80;21.53;;;-4.10;99.90;;;;;;4773604;30;20565;-83
2022/11/20 04:11:30;;;;;;;50.37;21.83;;;-4.20;99.90;;;;;;4788685;30;20291;-83
2022/11/20 04:14:00;;;;;;;48.43;20.50;;;-4.30;99.90;;;;;;4773668;30;20206;-85
2022/11/20 04:16:30;;;;;;;49.93;20.70;;;-4.40;99.90;;;;;;4773705;30;20656;-84
2022/11/20 04:18:59;;;;;;;59.93;21.80;;;-4.40;99.90;;;;;;4773554;30;20220;-84
2022/11/20 04:21:26;;;;;;;52.87;21.70;;;-4.40;99.90;;;;;;4789681;29;20206;-83
2022/11/20 04:23:54;;;;;;;48.67;21.27;;;-4.50;99.90;;;;;;4773457;30;20213;-82
2022/11/20 04:26:30;;;;;;;53.03;22.43;;;-4.60;99.90;;;;;;4773476;30;20291;-85
2022/11/20 04:28:58;;;;;;;49.83;21.23;;;-4.60;99.90;;;;;;4789589;29;20224;-82
2022/11/20 04:31:28;;;;;;;50.73;21.60;;;-4.60;99.90;;;;;;4788125;30;20231;-83
2022/11/20 04:33:55;;;;;;;50.07;21.33;;;-4.70;99.90;;;;;;4773259;30;20208;-82
2022/11/20 04:36:25;;;;;;;50.50;21.27;;;-4.60;99.90;;;;;;4758386;30;20625;-82
2022/11/20 04:38:53;;;;;;;48.33;21.67;;;-4.70;99.90;;;;;;4773149;30;20203;-88
2022/11/20 04:41:31;;;;;;;48.73;20.47;;;-4.60;99.90;;;;;;4773095;30;20204;-84
2022/11/20 04:44:02;;;;;;;48.20;20.67;;;-4.60;99.90;;;;;;4773247;30;20212;-87
2022/11/20 04:46:32;;;;;;;47.13;20.93;;;-4.70;99.90;;;;;;4773190;30;20193;-84
2022/11/20 04:49:00;;;;;;;47.20;19.30;;;-4.70;99.90;;;;;;4772811;30;20243;-81
2022/11/20 04:51:27;;;;;;;46.03;20.43;;;-4.70;99.90;;;;;;4773684;30;20653;-81
2022/11/20 04:53:54;;;;;;;47.87;20.53;;;-4.70;99.90;;;;;;4788731;30;20239;-82
2022/11/20 04:56:21;;;;;;;46.97;19.03;;;-4.70;99.90;;;;;;4772782;30;20200;-82
2022/11/20 04:58:48;;;;;;;46.07;20.10;;;-4.70;99.90;;;;;;4773185;30;20236;-84
2022/11/20 05:01:18;;;;;;;50.43;20.63;;;-4.70;99.90;;;;;;4758416;30;20206;-83
2022/11/20 05:03:45;;;;;;;51.57;20.50;;;-4.70;99.90;;;;;;4770969;30;20213;-83
2022/11/20 05:06:15;;;;;;;45.67;19.13;;;-4.70;99.90;;;;;;4771140;30;20552;-84
2022/11/20 05:08:42;;;;;;;44.03;20.03;;;-4.80;99.90;;;;;;4754860;30;20233;-85
2022/11/20 05:11:15;;;;;;;48.40;20.77;;;-4.70;99.90;;;;;;4771196;30;20672;-83
2022/11/20 05:13:42;;;;;;;47.20;20.03;;;-4.70;99.90;;;;;;4771358;30;20273;-85
2022/11/20 05:16:13;;;;;;;46.77;19.13;;;-4.70;99.90;;;;;;4770587;30;20208;-83
2022/11/20 05:18:41;;;;;;;45.33;19.33;;;-4.80;99.90;;;;;;4769679;30;20300;-81
2022/11/20 05:21:09;;;;;;;45.23;20.73;;;-4.70;99.90;;;;;;4771038;30;20567;-81
2022/11/20 05:23:36;;;;;;;47.67;20.53;;;-4.70;99.90;;;;;;4770440;30;20197;-81
2022/11/20 05:26:05;;;;;;;47.33;20.33;;;-4.60;99.90;;;;;;4754544;30;20224;-85
2022/11/20 05:28:32;;;;;;;47.37;20.23;;;-4.60;99.90;;;;;;4754586;30;20229;-84
2022/11/20 05:31:08;;;;;;;46.20;19.57;;;-4.60;99.90;;;;;;4754535;30;20221;-82
2022/11/20 05:33:35;;;;;;;49.90;19.33;;;-4.60;99.90;;;;;;4769201;30;20204;-83
2022/11/20 05:36:03;;;;;;;54.33;21.33;;;-4.60;99.90;;;;;;4754492;30;20545;-84
2022/11/20 05:38:31;;;;;;;48.73;21.33;;;-4.70;99.90;;;;;;4755041;30;20239;-88
2022/11/20 05:41:24;;;;;;;48.73;20.83;;;-4.70;99.90;;;;;;4770440;30;20275;-88
2022/11/20 05:43:51;;;;;;;46.07;19.47;;;-4.80;99.90;;;;;;4753367;30;20582;-89
2022/11/20 05:46:20;;;;;;;46.67;20.07;;;-4.70;99.90;;;;;;4754454;30;20210;-88
2022/11/20 05:48:55;;;;;;;45.90;20.27;;;-4.70;99.90;;;;;;4754351;30;20313;-85
2022/11/20 05:51:22;;;;;;;51.70;20.63;;;-4.80;99.90;;;;;;4753889;30;20197;-83
2022/11/20 05:53:49;;;;;;;46.30;19.53;;;-4.80;99.90;;;;;;4754222;30;20211;-83
2022/11/20 05:56:19;;;;;;;46.70;20.10;;;-4.80;99.90;;;;;;4754002;30;20728;-85
2022/11/20 05:58:47;;;;;;;49.67;20.87;;;-4.80;99.90;;;;;;4770284;30;20209;-83
2022/11/20 06:01:22;;;;;;;42.07;19.33;;;-4.70;99.90;;;;;;4754228;30;20217;-82
2022/11/20 06:03:50;;;;;;;49.43;21.17;;;-4.70;99.90;;;;;;4770266;30;20630;-79
2022/11/20 06:06:19;;;;;;;43.80;18.93;;;-4.60;99.90;;;;;;4754494;30;20246;-81
2022/11/20 06:08:47;;;;;;;50.80;20.63;;;-4.70;99.90;;;;;;4741185;30;20696;-84
2022/11/20 06:11:15;;;;;;;45.17;20.13;;;-4.70;99.90;;;;;;4755280;30;20682;-82
2022/11/20 06:13:42;;;;;;;50.47;20.83;;;-4.70;99.90;;;;;;4769057;30;20300;-86
2022/11/20 06:16:11;;;;;;;51.23;20.70;;;-4.80;99.90;;;;;;4758645;30;20224;-82
2022/11/20 06:18:38;;;;;;;49.43;20.70;;;-4.70;99.90;;;;;;4769954;30;20201;-79
2022/11/20 06:21:11;;;;;;;46.83;19.90;;;-4.70;99.90;;;;;;4768983;30;20208;-84
2022/11/20 06:23:38;;;;;;;50.97;20.80;;;-4.70;99.90;;;;;;4768586;30;20296;-80
2022/11/20 06:26:07;;;;;;;50.00;21.63;;;-4.70;99.90;;;;;;4771162;30;20665;-83
2022/11/20 06:28:34;;;;;;;53.30;21.43;;;-4.90;99.90;;;;;;4788043;29;20228;-84
2022/11/20 06:31:01;;;;;;;49.93;21.00;;;-4.90;99.90;;;;;;4783614;29;20215;-87
2022/11/20 06:33:29;;;;;;;48.53;20.73;;;-4.90;99.90;;;;;;4768652;30;20202;-88
2022/11/20 06:36:00;;;;;;;46.77;20.73;;;-5.00;99.90;;;;;;4770958;29;20193;-86
2022/11/20 06:38:34;;;;;;;51.07;22.47;;;-5.00;99.90;;;;;;4771450;30;20235;-84
2022/11/20 06:41:03;;;;;;;49.90;21.73;;;-4.80;99.90;;;;;;4771760;30;20201;-85
2022/11/20 06:43:30;;;;;;;52.73;22.20;;;-4.90;99.90;;;;;;4771654;30;20205;-82
2022/11/20 06:45:58;;;;;;;50.07;21.47;;;-4.80;99.90;;;;;;4766328;30;20278;-85
2022/11/20 06:48:27;;;;;;;55.13;21.97;;;-4.70;99.90;;;;;;4753621;30;20597;-82
2022/11/20 06:50:54;;;;;;;49.97;20.70;;;-4.60;99.90;;;;;;4768530;30;20673;-86
2022/11/20 06:53:22;;;;;;;49.90;21.10;;;-4.70;99.90;;;;;;4768481;30;20308;-85
2022/11/20 06:55:50;;;;;;;51.43;22.27;;;-4.80;99.90;;;;;;4765245;30;20246;-86
2022/11/20 06:58:17;;;;;;;52.97;21.43;;;-4.80;99.90;;;;;;4765482;30;20206;-83
2022/11/20 07:00:44;;;;;;;51.53;22.50;;;-4.80;99.90;;;;;;4764477;30;20228;-83
2022/11/20 07:03:12;;;;;;;50.83;20.63;;;-4.80;99.90;;;;;;4770346;30;20209;-84
2022/11/20 07:05:40;;;;;;;51.20;21.30;;;-4.70;99.90;;;;;;4754973;30;20205;-85
2022/11/20 07:08:07;;;;;;;57.07;23.10;;;-4.70;99.90;;;;;;4761286;30;20229;-84
2022/11/20 07:10:34;;;;;;;48.93;21.63;;;-4.70;99.90;;;;;;4772414;30;20207;-86
2022/11/20 07:13:01;;;;;;;49.03;21.00;;;-4.70;99.90;;;;;;4771814;30;20299;-87
2022/11/20 07:15:28;;;;;;;51.57;22.27;;;-4.70;99.90;;;;;;4771693;30;20226;-83
2022/11/20 07:17:58;;;;;;;56.53;21.87;;;-4.60;99.90;;;;;;4771725;30;20212;-82
2022/11/20 07:20:24;;;;;;;49.97;21.50;;;-4.60;99.90;;;;;;4771354;30;20206;-82
2022/11/20 07:22:55;;;;;;;52.17;21.67;;;-4.30;99.90;;;;;;4786311;29;20264;-82
2022/11/20 07:25:27;;;;;;;49.97;21.77;;;-4.00;99.90;;;;;;4770222;30;20220;-81
2022/11/20 07:28:00;;;;;;;46.50;20.57;;;-3.70;99.90;;;;;;4767882;30;20213;-82
2022/11/20 07:30:28;;;;;;;48.13;21.37;;;-3.40;99.90;;;;;;4772261;30;20292;-79
2022/11/20 07:32:56;;;;;;;48.47;21.07;;;-3.20;99.90;;;;;;4772220;30;20672;-81
2022/11/20 07:35:24;;;;;;;47.50;20.77;;;-3.10;99.90;;;;;;4771206;30;20218;-83
2022/11/20 07:37:51;;;;;;;49.83;21.27;;;-3.10;99.90;;;;;;4772540;30;20214;-82
2022/11/20 07:40:19;;;;;;;50.37;21.53;;;-3.10;99.90;;;;;;4771067;30;20300;-83
2022/11/20 07:42:50;;;;;;;46.53;20.70;;;-3.00;99.90;;;;;;4772612;30;20657;-84
2022/11/20 07:45:21;;;;;;;47.50;20.60;;;-2.80;99.90;;;;;;4772917;30;20224;-83
2022/11/20 07:47:51;;;;;;;48.03;21.23;;;-2.50;99.90;;;;;;4770804;30;20213;-83
2022/11/20 07:50:19;;;;;;;47.10;20.40;;;-2.40;99.90;;;;;;4771027;30;20711;-83
2022/11/20 07:52:46;;;;;;;47.10;21.07;;;-2.40;99.90;;;;;;4772392;30;20661;-83
2022/11/20 07:55:13;;;;;;;48.10;19.93;;;-2.30;99.90;;;;;;4784323;30;20247;-83
2022/11/20 07:57:40;;;;;;;47.70;21.73;;;-2.10;99.90;;;;;;4774157;30;20223;-83
2022/11/20 08:00:10;;;;;;;46.10;20.13;;;-2.10;99.90;;;;;;4770262;30;20233;-80
2022/11/20 08:02:38;;;;;;;47.53;22.37;;;-1.90;99.90;;;;;;4772021;30;20208;-84
2022/11/20 08:05:07;;;;;;;47.73;22.03;;;-1.60;99.90;;;;;;4771866;30;20219;-81
2022/11/20 08:07:42;;;;;;;54.90;22.10;;;-1.40;99.90;;;;;;4771990;30;20207;-84
2022/11/20 08:10:11;;;;;;;47.50;21.57;;;-1.30;99.90;;;;;;4772245;30;20230;-83
2022/11/20 08:15:36;;;;;;;48.40;22.97;;;-1.20;99.90;;;;;;4773713;30;20290;-83
2022/11/20 08:18:11;;;;;;;46.27;21.50;;;-0.90;99.90;;;;;;4789772;29;20204;-80
2022/11/20 08:21:01;;;;;;;53.30;22.33;;;-1.00;99.90;;;;;;4788080;29;20355;-83
2022/11/20 08:23:28;;;;;;;47.47;22.73;;;-1.00;99.90;;;;;;4789529;29;20671;-84
2022/11/20 08:25:55;;;;;;;50.33;22.77;;;-0.90;99.90;;;;;;4789698;29;20221;-84
2022/11/20 08:28:22;;;;;;;47.87;22.63;;;-0.80;99.90;;;;;;4790048;30;20327;-85
2022/11/20 08:30:49;;;;;;;51.13;22.23;;;-1.00;99.90;;;;;;4791083;30;20289;-84
2022/11/20 08:33:17;;;;;;;52.03;23.23;;;-0.90;99.90;;;;;;4773108;29;20212;-85
2022/11/20 08:35:45;;;;;;;51.53;22.93;;;-0.90;99.90;;;;;;4770304;30;20219;-84
2022/11/20 08:38:12;;;;;;;49.47;23.30;;;-1.30;99.90;;;;;;4771495;30;20373;-85
2022/11/20 08:40:39;;;;;;;55.87;23.90;;;-1.30;99.90;;;;;;4755407;30;20205;-81
2022/11/20 08:43:05;;;;;;;49.97;22.37;;;-1.30;99.90;;;;;;4771306;30;20229;-85
2022/11/20 08:45:32;;;;;;;52.87;24.10;;;-1.20;99.90;;;;;;4767789;30;20312;-85
2022/11/20 08:48:02;;;;;;;47.83;22.80;;;-1.30;99.90;;;;;;4754514;30;20209;-80
2022/11/20 08:50:31;;;;;;;52.17;22.77;;;-1.40;99.90;;;;;;4755747;30;20229;-82
2022/11/20 08:53:04;;;;;;;50.83;23.43;;;-1.50;99.90;;;;;;4771187;30;20200;-83
2022/11/20 08:55:31;;;;;;;52.07;23.13;;;-1.60;99.90;;;;;;4754938;30;20266;-81
2022/11/20 08:58:02;;;;;;;53.10;23.50;;;-1.70;99.90;;;;;;4755111;30;20212;-81
2022/11/20 09:00:29;;;;;;;55.97;24.03;;;-1.80;99.90;;;;;;4755324;30;20596;-81
2022/11/20 09:02:58;;;;;;;52.57;23.43;;;-1.80;99.90;;;;;;4771480;30;20310;-81
2022/11/20 09:05:25;;;;;;;50.93;23.63;;;-1.70;99.90;;;;;;4755957;30;20242;-83
2022/11/20 09:07:52;;;;;;;48.30;22.57;;;-1.70;99.90;;;;;;4771247;30;20210;-84
2022/11/20 09:10:19;;;;;;;50.13;23.33;;;-1.90;99.90;;;;;;4755192;30;20229;-84
2022/11/20 09:12:51;;;;;;;50.63;22.47;;;-1.80;99.90;;;;;;4755035;30;20729;-82
2022/11/20 09:15:19;;;;;;;45.77;21.33;;;-2.00;99.90;;;;;;4770851;30;20265;-81
2022/11/20 09:17:59;;;;;;;47.07;21.90;;;-2.00;99.90;;;;;;4770888;30;20244;-83
2022/11/20 09:20:28;;;;;;;48.73;22.30;;;-2.00;99.90;;;;;;4770797;30;20231;-83
2022/11/20 09:22:56;;;;;;;45.33;21.43;;;-1.90;99.90;;;;;;4771085;30;20735;-78
2022/11/20 09:25:24;;;;;;;50.87;22.63;;;-1.90;99.90;;;;;;4769977;30;20284;-79
2022/11/20 09:27:58;;;;;;;50.47;22.83;;;-1.80;99.90;;;;;;4770475;30;20699;-80
2022/11/20 09:30:26;;;;;;;50.90;22.30;;;-1.60;99.90;;;;;;4754669;30;20245;-85
2022/11/20 09:32:53;;;;;;;47.67;21.23;;;-1.70;99.90;;;;;;4771005;30;20241;-85
2022/11/20 09:35:20;;;;;;;44.37;21.27;;;-1.60;99.90;;;;;;4770348;30;20204;-83
2022/11/20 09:37:47;;;;;;;49.77;21.90;;;-1.70;99.90;;;;;;4769542;30;20209;-81
2022/11/20 09:40:25;;;;;;;54.20;22.50;;;-1.80;99.90;;;;;;4740120;30;20217;-84
2022/11/20 09:43:06;;;;;;;47.20;21.33;;;-1.70;99.90;;;;;;4770629;30;20197;-83
2022/11/20 09:46:05;;;;;;;45.13;21.23;;;-1.60;99.90;;;;;;4769063;30;20213;-83
2022/11/20 09:48:46;;;;;;;49.70;20.40;;;-1.60;99.90;;;;;;4754740;30;20220;-83
2022/11/20 09:51:18;;;;;;;51.63;22.03;;;-1.60;99.90;;;;;;4754633;30;20568;-82
2022/11/20 09:54:00;;;;;;;52.87;22.13;;;-1.50;99.90;;;;;;4759255;30;20232;-82
2022/11/20 09:56:32;;;;;;;52.37;23.27;;;-1.50;99.90;;;;;;4764714;30;20208;-80
2022/11/20 09:59:04;;;;;;;48.97;21.77;;;-1.40;99.90;;;;;;4768159;30;20209;-83
2022/11/20 10:01:35;;;;;;;48.00;22.27;;;-1.20;99.90;;;;;;4769007;30;20209;-77
2022/11/20 10:04:13;;;;;;;57.67;24.73;;;-1.10;99.90;;;;;;4774195;30;20240;-82
2022/11/20 10:06:50;;;;;;;51.27;22.63;;;-1.10;99.90;;;;;;4774001;30;20276;-85
2022/11/20 10:09:39;;;;;;;54.40;22.97;;;-1.00;99.90;;;;;;4770435;30;20234;-83
2022/11/20 10:12:15;;;;;;;53.50;23.00;;;-1.00;99.90;;;;;;4780971;29;20328;-83
2022/11/20 10:14:51;;;;;;;48.00;23.43;;;-0.90;99.90;;;;;;4771939;30;20220;-81
2022/11/20 10:17:24;;;;;;;51.87;22.70;;;-0.80;99.90;;;;;;4772266;30;20235;-81
2022/11/20 10:20:26;;;;;;;52.63;23.33;;;-0.70;99.90;;;;;;4788050;29;20207;-82
2022/11/20 10:23:10;;;;;;;53.30;22.87;;;-0.60;99.90;;;;;;4786335;29;20249;-83
2022/11/20 10:25:43;;;;;;;50.07;23.03;;;-0.60;99.90;;;;;;4771587;30;20670;-80
2022/11/20 10:28:34;;;;;;;51.07;22.80;;;-0.50;99.90;;;;;;4772476;30;20200;-83
2022/11/20 10:31:10;;;;;;;54.50;21.97;;;-0.40;99.90;;;;;;4772062;30;20193;-80
2022/11/20 10:33:41;;;;;;;47.67;21.57;;;-0.40;99.90;;;;;;4787737;30;20532;-85
2022/11/20 10:36:36;;;;;;;49.03;21.13;;;-0.50;99.90;;;;;;4784118;29;20564;-82
2022/11/20 10:39:16;;;;;;;46.57;21.07;;;-0.40;99.90;;;;;;4772977;30;20202;-79
2022/11/20 10:41:49;;;;;;;46.10;21.23;;;-0.30;99.90;;;;;;4771978;30;20211;-80
2022/11/20 10:47:11;;;;;;;45.47;20.53;;;-0.40;99.90;;;;;;4787753;29;20265;-80
2022/11/20 10:49:40;;;;;;;46.10;20.87;;;-0.30;99.90;;;;;;4757816;30;20634;-79
2022/11/20 10:52:34;;;;;;;42.63;20.53;;;-0.30;99.90;;;;;;4787160;29;20197;-79
2022/11/20 10:55:28;;;;;;;49.30;21.97;;;-0.20;99.90;;;;;;4766842;30;20717;-81
2022/11/20 10:58:08;;;;;;;47.37;22.03;;;-0.20;99.90;;;;;;4771090;30;20585;-80
2022/11/20 11:00:35;;;;;;;46.50;21.43;;;-0.20;99.90;;;;;;4772711;30;20222;-79
2022/11/20 11:03:02;;;;;;;46.73;21.47;;;-0.10;99.90;;;;;;4757309;30;20289;-82
2022/11/20 11:06:10;;;;;;;43.83;20.20;;;0.00;99.90;;;;;;4756846;30;20216;-82
2022/11/20 11:08:41;;;;;;;44.20;20.23;;;0.10;99.90;;;;;;4720833;30;20210;-83
2022/11/20 11:11:27;;;;;;;40.73;20.60;;;0.20;99.90;;;;;;4721027;30;20216;-81
2022/11/20 11:14:06;;;;;;;43.87;20.50;;;0.30;99.90;;;;;;4744220;30;20217;-84
2022/11/20 11:16:33;;;;;;;42.77;20.17;;;0.20;99.90;;;;;;4747866;30;20214;-85
2022/11/20 11:19:11;;;;;;;44.47;20.77;;;0.30;99.90;;;;;;4748602;30;20255;-81
2022/11/20 11:21:43;;;;;;;44.33;20.70;;;0.50;99.90;;;;;;4748076;30;20824;-87
2022/11/20 11:24:21;;;;;;;45.73;21.07;;;0.40;99.90;;;;;;4750399;30;20208;-83
2022/11/20 11:27:13;;;;;;;45.20;21.13;;;0.70;99.90;;;;;;4747594;30;20213;-83
2022/11/20 11:29:44;;;;;;;43.50;20.97;;;1.40;99.90;;;;;;4736120;30;20229;-83
2022/11/20 11:32:21;;;;;;;44.20;21.03;;;2.20;99.90;;;;;;4745899;30;20767;-83
2022/11/20 11:35:18;;;;;;;42.23;19.97;;;2.90;99.90;;;;;;4743820;30;20231;-81
2022/11/20 11:37:46;;;;;;;40.87;19.40;;;3.60;99.90;;;;;;4747600;30;20222;-81
2022/11/20 11:40:15;;;;;;;38.27;19.27;;;4.40;99.90;;;;;;4732519;30;20212;-82
2022/11/20 11:42:54;;;;;;;40.73;20.53;;;5.10;99.90;;;;;;4735259;30;20243;-87
2022/11/20 11:45:22;;;;;;;42.07;20.60;;;6.00;99.90;;;;;;4749635;30;20268;-83
2022/11/20 11:47:51;;;;;;;36.67;19.73;;;6.00;99.90;;;;;;4771198;29;20654;-80
2022/11/20 11:50:24;;;;;;;42.53;20.07;;;6.40;99.90;;;;;;4771370;30;20560;-83
2022/11/20 11:53:16;;;;;;;38.53;19.53;;;6.10;99.90;;;;;;4772446;29;20578;-81
2022/11/20 11:55:52;;;;;;;44.50;19.57;;;6.00;99.90;;;;;;4772280;30;20661;-81
2022/11/20 11:58:41;;;;;;;42.00;20.87;;;5.80;99.90;;;;;;4770461;30;20317;-82
2022/11/20 12:01:22;;;;;;;36.37;19.57;;;5.30;99.90;;;;;;4784771;29;20234;-80
2022/11/20 12:03:59;;;;;;;37.30;18.97;;;4.60;99.90;;;;;;4778618;30;20624;-81
2022/11/20 12:06:29;;;;;;;40.00;20.47;;;4.00;99.90;;;;;;4787275;29;20225;-82
2022/11/20 12:09:02;;;;;;;39.27;20.33;;;3.70;99.90;;;;;;4757082;30;20209;-80
2022/11/20 12:11:40;;;;;;;41.77;20.27;;;3.30;99.90;;;;;;4768859;30;20301;-83
2022/11/20 12:14:33;;;;;;;39.27;20.43;;;3.20;99.90;;;;;;4755960;30;20207;-82
2022/11/20 12:17:01;;;;;;;38.97;19.53;;;3.00;99.90;;;;;;4764677;30;20657;-79
2022/11/20 12:19:34;;;;;;;40.63;20.43;;;2.70;99.90;;;;;;4772585;30;20236;-79
2022/11/20 12:22:09;;;;;;;41.17;21.17;;;2.60;99.90;;;;;;4789128;29;20662;-80
2022/11/20 12:25:01;;;;;;;39.87;20.23;;;2.30;99.90;;;;;;4773206;30;20669;-80
2022/11/20 12:27:27;;;;;;;35.03;18.20;;;2.20;99.90;;;;;;4771004;30;20219;-80
2022/11/20 12:30:13;;;;;;;39.03;19.03;;;2.20;99.90;;;;;;4785693;29;20231;-82
2022/11/20 12:32:55;;;;;;;39.83;17.90;;;2.10;99.90;;;;;;4771949;30;20204;-83
2022/11/20 12:35:40;;;;;;;42.30;19.57;;;2.00;99.90;;;;;;4764142;29;20263;-83
2022/11/20 12:38:25;;;;;;;41.13;19.77;;;2.10;99.90;;;;;;4776546;29;20197;-81
2022/11/20 12:40:58;;;;;;;43.33;19.70;;;2.20;99.90;;;;;;4768740;29;20208;-82
2022/11/20 12:46:37;;;;;;;41.20;19.20;;;2.40;99.90;;;;;;4788422;29;20200;-81
2022/11/20 12:49:05;;;;;;;37.90;19.20;;;2.90;99.90;;;;;;4772482;30;20204;-82
2022/11/20 12:52:14;;;;;;;40.73;19.37;;;3.20;99.90;;;;;;4770008;29;20265;-78
2022/11/20 12:54:47;;;;;;;36.43;17.40;;;3.40;99.90;;;;;;4765367;30;20599;-80
2022/11/20 12:57:24;;;;;;;33.87;16.47;;;3.60;99.90;;;;;;4769334;29;20210;-82
2022/11/20 13:00:04;;;;;;;35.73;18.30;;;3.90;99.90;;;;;;4771351;30;20254;-82
2022/11/20 13:02:42;;;;;;;38.70;18.77;;;3.90;99.90;;;;;;4766616;29;20679;-82